createdAt,value
2018-02-14T00:00:25.896Z,86.05
2018-02-14T00:01:25.884Z,86.05
2018-02-14T00:02:25.855Z,86.52
2018-02-14T00:03:25.834Z,86.52
2018-02-14T00:04:25.820Z,86.24
2018-02-14T00:05:25.800Z,86.90
2018-02-14T00:06:25.772Z,87.09
2018-02-14T00:07:25.758Z,87.18
2018-02-14T00:08:25.731Z,87.85
2018-02-14T00:09:25.708Z,87.09
2018-02-14T00:10:25.690Z,86.71
2018-02-14T00:11:25.667Z,88.04
2018-02-14T00:12:25.646Z,88.04
2018-02-14T00:13:25.628Z,88.04
2018-02-14T00:14:25.608Z,88.51
2018-02-14T00:15:25.596Z,88.79
2018-02-14T00:16:25.569Z,89.64
2018-02-14T00:17:25.541Z,88.23
2018-02-14T00:18:25.530Z,88.04
2018-02-14T00:19:25.499Z,87.56
2018-02-14T00:20:25.483Z,87.66
2018-02-14T00:21:25.460Z,87.37
2018-02-14T00:22:25.437Z,86.90
2018-02-14T00:23:25.417Z,87.66
2018-02-14T00:24:25.392Z,86.90
2018-02-14T00:25:25.372Z,87.56
2018-02-14T00:26:25.358Z,86.99
2018-02-14T00:27:25.331Z,86.52
2018-02-14T00:28:25.308Z,86.05
2018-02-14T00:29:25.291Z,85.58
2018-02-14T00:30:25.269Z,86.15
2018-02-14T00:31:25.254Z,86.52
2018-02-14T00:32:25.224Z,87.28
2018-02-14T00:33:25.204Z,86.99
2018-02-14T00:34:25.182Z,86.43
2018-02-14T00:35:25.165Z,85.68
2018-02-14T00:36:25.139Z,87.37
2018-02-14T00:37:25.121Z,86.15
2018-02-14T00:38:25.105Z,85.11
2018-02-14T00:39:25.084Z,86.05
2018-02-14T00:40:25.063Z,90.11
2018-02-14T00:41:25.039Z,89.17
2018-02-14T00:42:25.011Z,86.99
2018-02-14T00:43:24.995Z,85.77
2018-02-14T00:44:24.968Z,84.16
2018-02-14T00:45:24.953Z,84.45
2018-02-14T00:46:24.929Z,86.99
2018-02-14T00:47:24.911Z,84.64
2018-02-14T00:48:24.883Z,85.11
2018-02-14T00:49:24.863Z,86.52
2018-02-14T00:50:24.849Z,86.71
2018-02-14T00:51:24.821Z,84.82
2018-02-14T00:52:24.801Z,83.59
2018-02-14T00:53:24.780Z,82.75
2018-02-14T00:54:24.764Z,82.84
2018-02-14T00:55:24.738Z,82.56
2018-02-14T00:56:24.716Z,83.31
2018-02-14T00:57:24.697Z,84.07
2018-02-14T00:58:24.674Z,84.64
2018-02-14T00:59:24.652Z,84.82
2018-02-14T01:00:24.629Z,85.20
2018-02-14T01:01:24.605Z,85.49
2018-02-14T01:02:24.588Z,85.01
2018-02-14T01:03:24.568Z,85.39
2018-02-14T01:04:24.541Z,85.30
2018-02-14T01:05:24.522Z,90.11
2018-02-14T01:06:24.502Z,89.07
2018-02-14T01:07:24.485Z,88.23
2018-02-14T01:08:24.457Z,91.25
2018-02-14T01:09:24.436Z,91.82
2018-02-14T01:10:24.415Z,90.02
2018-02-14T01:11:24.394Z,87.56
2018-02-14T01:12:24.379Z,87.09
2018-02-14T01:13:24.352Z,84.82
2018-02-14T01:14:24.334Z,86.66
2018-02-14T01:15:24.309Z,86.38
2018-02-14T01:16:24.297Z,86.57
2018-02-14T01:17:24.272Z,84.20
2018-02-14T01:18:24.242Z,84.77
2018-02-14T01:19:24.223Z,83.92
2018-02-14T01:20:24.209Z,84.30
2018-02-14T01:21:24.179Z,83.36
2018-02-14T01:22:24.156Z,84.35
2018-02-14T01:23:24.137Z,83.31
2018-02-14T01:24:24.118Z,84.96
2018-02-14T01:25:24.097Z,84.01
2018-02-14T01:26:24.072Z,84.30
2018-02-14T01:27:24.050Z,84.58
2018-02-14T01:28:24.037Z,85.43
2018-02-14T01:29:24.014Z,87.23
2018-02-14T01:30:23.987Z,86.85
2018-02-14T01:31:23.973Z,87.23
2018-02-14T01:32:23.943Z,84.77
2018-02-14T01:33:23.929Z,83.26
2018-02-14T01:34:23.901Z,81.84
2018-02-14T01:35:23.880Z,81.74
2018-02-14T01:36:23.859Z,82.28
2018-02-14T01:37:23.838Z,84.30
2018-02-14T01:38:23.817Z,83.31
2018-02-14T01:39:23.795Z,86.24
2018-02-14T01:40:23.771Z,86.57
2018-02-14T01:41:23.753Z,85.01
2018-02-14T01:42:23.729Z,84.16
2018-02-14T01:43:23.710Z,86.57
2018-02-14T01:44:23.687Z,88.55
2018-02-14T01:45:23.673Z,88.84
2018-02-14T01:46:23.644Z,88.93
2018-02-14T01:47:23.623Z,87.13
2018-02-14T01:48:23.601Z,89.78
2018-02-14T01:49:23.617Z,85.43
2018-02-14T01:50:23.566Z,82.69
2018-02-14T01:51:23.548Z,85.05
2018-02-14T01:52:23.529Z,84.01
2018-02-14T01:53:23.494Z,80.80
2018-02-14T01:54:23.473Z,81.37
2018-02-14T01:55:23.465Z,80.99
2018-02-14T01:56:23.432Z,79.95
2018-02-14T01:57:23.412Z,80.24
2018-02-14T01:58:23.389Z,81.74
2018-02-14T01:59:23.368Z,82.41
2018-02-14T02:00:23.348Z,82.28
2018-02-14T02:01:23.326Z,81.90
2018-02-14T02:02:23.306Z,84.07
2018-02-14T02:03:23.283Z,83.78
2018-02-14T02:04:23.264Z,83.31
2018-02-14T02:05:23.241Z,82.28
2018-02-14T02:06:23.222Z,82.37
2018-02-14T02:07:23.200Z,85.15
2018-02-14T02:08:23.178Z,85.15
2018-02-14T02:09:23.155Z,85.43
2018-02-14T02:10:23.143Z,83.36
2018-02-14T02:11:23.115Z,82.46
2018-02-14T02:12:23.091Z,82.37
2018-02-14T02:13:23.072Z,82.93
2018-02-14T02:14:23.049Z,82.65
2018-02-14T02:15:23.030Z,82.69
2018-02-14T02:16:23.010Z,82.84
2018-02-14T02:17:22.989Z,83.22
2018-02-14T02:18:22.967Z,82.84
2018-02-14T02:19:22.950Z,83.88
2018-02-14T02:20:22.922Z,83.12
2018-02-14T02:21:22.905Z,83.50
2018-02-14T02:22:22.887Z,84.16
2018-02-14T02:23:22.860Z,84.07
2018-02-14T02:24:22.839Z,84.07
2018-02-14T02:25:22.823Z,85.20
2018-02-14T02:26:22.796Z,86.90
2018-02-14T02:27:22.774Z,86.24
2018-02-14T02:28:22.754Z,88.32
2018-02-14T02:29:22.734Z,87.47
2018-02-14T02:30:22.717Z,85.39
2018-02-14T02:31:22.696Z,85.58
2018-02-14T02:32:22.670Z,84.82
2018-02-14T02:33:22.652Z,84.82
2018-02-14T02:34:22.627Z,84.92
2018-02-14T02:35:22.614Z,85.49
2018-02-14T02:36:22.590Z,86.05
2018-02-14T02:37:22.566Z,86.24
2018-02-14T02:38:22.545Z,87.09
2018-02-14T02:39:22.522Z,86.43
2018-02-14T02:40:22.500Z,89.59
2018-02-14T02:41:22.483Z,86.94
2018-02-14T02:42:22.457Z,85.15
2018-02-14T02:43:22.444Z,84.96
2018-02-14T02:44:22.418Z,87.89
2018-02-14T02:45:22.399Z,84.96
2018-02-14T02:46:22.379Z,83.17
2018-02-14T02:47:22.355Z,82.88
2018-02-14T02:48:22.334Z,83.64
2018-02-14T02:49:22.312Z,82.88
2018-02-14T02:50:22.290Z,83.54
2018-02-14T02:51:22.271Z,84.58
2018-02-14T02:52:22.247Z,84.26
2018-02-14T02:53:22.234Z,85.01
2018-02-14T02:54:22.210Z,85.58
2018-02-14T02:55:22.195Z,85.86
2018-02-14T02:56:22.168Z,85.68
2018-02-14T02:57:22.147Z,85.96
2018-02-14T02:58:22.122Z,85.96
2018-02-14T02:59:22.107Z,86.33
2018-02-14T03:00:22.083Z,86.62
2018-02-14T03:01:22.060Z,86.99
2018-02-14T03:02:22.036Z,86.99
2018-02-14T03:03:22.016Z,86.99
2018-02-14T03:04:21.995Z,87.09
2018-02-14T03:05:21.974Z,86.99
2018-02-14T03:06:21.953Z,88.13
2018-02-14T03:07:21.937Z,87.85
2018-02-14T03:08:21.910Z,87.18
2018-02-14T03:09:21.890Z,86.99
2018-02-14T03:10:21.872Z,87.47
2018-02-14T03:11:21.851Z,86.90
2018-02-14T03:12:21.828Z,85.49
2018-02-14T03:13:21.812Z,84.16
2018-02-14T03:14:21.783Z,84.82
2018-02-14T03:15:21.770Z,84.54
2018-02-14T03:16:21.747Z,85.39
2018-02-14T03:17:21.721Z,85.96
2018-02-14T03:18:21.705Z,87.85
2018-02-14T03:19:21.686Z,88.13
2018-02-14T03:20:21.656Z,88.84
2018-02-14T03:21:21.638Z,87.98
2018-02-14T03:22:21.616Z,86.66
2018-02-14T03:23:21.596Z,85.72
2018-02-14T03:24:21.574Z,86.38
2018-02-14T03:25:21.554Z,86.76
2018-02-14T03:26:21.530Z,83.36
2018-02-14T03:27:21.510Z,85.34
2018-02-14T03:28:21.493Z,84.86
2018-02-14T03:29:21.468Z,85.81
2018-02-14T03:30:21.445Z,84.49
2018-02-14T03:31:21.429Z,84.11
2018-02-14T03:32:21.406Z,82.50
2018-02-14T03:33:21.383Z,84.01
2018-02-14T03:34:21.361Z,85.72
2018-02-14T03:35:21.343Z,87.32
2018-02-14T03:36:21.318Z,84.20
2018-02-14T03:37:21.297Z,83.92
2018-02-14T03:38:21.277Z,84.49
2018-02-14T03:39:21.262Z,84.77
2018-02-14T03:40:21.238Z,83.36
2018-02-14T03:41:21.218Z,82.60
2018-02-14T03:42:21.201Z,83.83
2018-02-14T03:43:21.174Z,81.09
2018-02-14T03:44:21.152Z,81.93
2018-02-14T03:45:21.129Z,82.41
2018-02-14T03:46:21.111Z,83.54
2018-02-14T03:47:21.089Z,86.57
2018-02-14T03:48:21.069Z,86.38
2018-02-14T03:49:21.044Z,84.39
2018-02-14T03:50:21.023Z,85.81
2018-02-14T03:51:21.006Z,82.88
2018-02-14T03:52:20.980Z,83.45
2018-02-14T03:53:20.962Z,84.68
2018-02-14T03:54:20.948Z,87.13
2018-02-14T03:55:20.918Z,86.76
2018-02-14T03:56:20.897Z,83.64
2018-02-14T03:57:20.877Z,83.45
2018-02-14T03:58:20.855Z,83.36
2018-02-14T03:59:20.840Z,82.98
2018-02-14T04:00:20.819Z,82.88
2018-02-14T04:01:20.789Z,83.17
2018-02-14T04:02:20.774Z,85.34
2018-02-14T04:03:20.749Z,84.77
2018-02-14T04:04:20.731Z,82.03
2018-02-14T04:05:20.706Z,80.80
2018-02-14T04:06:20.686Z,82.98
2018-02-14T04:07:20.668Z,84.86
2018-02-14T04:08:20.646Z,84.77
2018-02-14T04:09:20.627Z,82.98
2018-02-14T04:10:20.602Z,84.68
2018-02-14T04:11:20.586Z,82.41
2018-02-14T04:12:20.565Z,81.93
2018-02-14T04:13:20.537Z,82.69
2018-02-14T04:14:20.521Z,83.54
2018-02-14T04:15:20.501Z,85.81
2018-02-14T04:16:20.476Z,82.88
2018-02-14T04:17:20.455Z,82.41
2018-02-14T04:18:20.432Z,82.31
2018-02-14T04:19:20.411Z,83.40
2018-02-14T04:20:20.389Z,82.84
2018-02-14T04:21:20.367Z,83.03
2018-02-14T04:22:20.348Z,84.07
2018-02-14T04:23:20.328Z,83.78
2018-02-14T04:24:20.303Z,83.88
2018-02-14T04:25:20.282Z,84.07
2018-02-14T04:26:20.261Z,84.64
2018-02-14T04:27:20.246Z,85.01
2018-02-14T04:28:20.219Z,85.58
2018-02-14T04:29:20.204Z,85.01
2018-02-14T04:30:20.180Z,85.49
2018-02-14T04:31:20.157Z,85.11
2018-02-14T04:32:20.134Z,85.20
2018-02-14T04:33:20.122Z,85.68
2018-02-14T04:34:20.092Z,85.86
2018-02-14T04:35:20.076Z,86.99
2018-02-14T04:36:20.050Z,89.45
2018-02-14T04:37:20.029Z,87.47
2018-02-14T04:38:20.008Z,87.09
2018-02-14T04:39:19.986Z,87.37
2018-02-14T04:40:19.963Z,87.85
2018-02-14T04:41:19.943Z,88.98
2018-02-14T04:42:19.920Z,88.23
2018-02-14T04:43:19.906Z,87.18
2018-02-14T04:44:19.878Z,87.18
2018-02-14T04:45:19.859Z,86.99
2018-02-14T04:46:19.838Z,87.75
2018-02-14T04:47:19.818Z,89.07
2018-02-14T04:48:19.801Z,88.98
2018-02-14T04:49:19.782Z,88.98
2018-02-14T04:50:19.753Z,88.42
2018-02-14T04:51:19.734Z,87.47
2018-02-14T04:52:19.709Z,87.09
2018-02-14T04:53:19.690Z,87.47
2018-02-14T04:54:19.666Z,86.90
2018-02-14T04:55:19.645Z,87.66
2018-02-14T04:56:19.623Z,88.98
2018-02-14T04:57:19.605Z,88.23
2018-02-14T04:58:19.581Z,88.51
2018-02-14T04:59:19.561Z,88.51
2018-02-14T05:00:19.543Z,87.85
2018-02-14T05:01:19.524Z,88.42
2018-02-14T05:02:19.496Z,88.23
2018-02-14T05:03:19.479Z,88.32
2018-02-14T05:04:19.453Z,90.21
2018-02-14T05:05:19.432Z,87.94
2018-02-14T05:06:19.413Z,86.80
2018-02-14T05:07:19.390Z,86.80
2018-02-14T05:08:19.376Z,87.18
2018-02-14T05:09:19.355Z,87.56
2018-02-14T05:10:19.328Z,86.24
2018-02-14T05:11:19.308Z,85.68
2018-02-14T05:12:19.284Z,85.39
2018-02-14T05:13:19.262Z,87.37
2018-02-14T05:14:19.244Z,88.23
2018-02-14T05:15:19.220Z,88.23
2018-02-14T05:16:19.200Z,87.18
2018-02-14T05:17:19.178Z,86.52
2018-02-14T05:18:19.162Z,86.05
2018-02-14T05:19:19.136Z,85.20
2018-02-14T05:20:19.115Z,86.05
2018-02-14T05:21:19.092Z,84.35
2018-02-14T05:22:19.072Z,85.49
2018-02-14T05:23:19.052Z,84.54
2018-02-14T05:24:19.029Z,85.58
2018-02-14T05:25:19.016Z,84.77
2018-02-14T05:26:18.991Z,85.05
2018-02-14T05:27:18.966Z,87.23
2018-02-14T05:28:18.945Z,86.57
2018-02-14T05:29:18.924Z,84.58
2018-02-14T05:30:18.908Z,85.81
2018-02-14T05:31:18.891Z,85.34
2018-02-14T05:32:18.859Z,84.77
2018-02-14T05:33:18.836Z,85.34
2018-02-14T05:34:18.828Z,86.47
2018-02-14T05:35:18.797Z,84.58
2018-02-14T05:36:18.777Z,83.26
2018-02-14T05:37:18.752Z,82.03
2018-02-14T05:38:18.732Z,83.73
2018-02-14T05:39:18.714Z,82.88
2018-02-14T05:40:18.691Z,82.41
2018-02-14T05:41:18.669Z,83.36
2018-02-14T05:42:18.648Z,86.57
2018-02-14T05:43:18.626Z,88.17
2018-02-14T05:44:18.606Z,85.05
2018-02-14T05:45:18.585Z,84.86
2018-02-14T05:46:18.588Z,84.68
2018-02-14T05:47:18.543Z,82.88
2018-02-14T05:48:18.519Z,84.58
2018-02-14T05:49:18.502Z,83.83
2018-02-14T05:50:18.479Z,85.15
2018-02-14T05:51:18.458Z,83.45
2018-02-14T05:52:18.441Z,82.79
2018-02-14T05:53:18.414Z,83.36
2018-02-14T05:54:18.393Z,84.77
2018-02-14T05:55:18.373Z,85.05
2018-02-14T05:56:18.403Z,83.36
2018-02-14T05:57:18.332Z,83.83
2018-02-14T05:58:18.316Z,84.30
2018-02-14T05:59:18.289Z,84.49
2018-02-14T06:00:18.271Z,83.54
2018-02-14T06:01:18.247Z,83.40
2018-02-14T06:02:18.226Z,83.31
2018-02-14T06:03:18.240Z,84.16
2018-02-14T06:04:18.187Z,84.82
2018-02-14T06:05:18.164Z,86.05
2018-02-14T06:06:18.145Z,85.01
2018-02-14T06:07:18.120Z,85.58
2018-02-14T06:08:18.113Z,87.51
2018-02-14T06:09:18.079Z,87.61
2018-02-14T06:10:18.065Z,85.24
2018-02-14T06:11:18.039Z,86.57
2018-02-14T06:12:18.019Z,88.08
2018-02-14T06:13:17.997Z,88.46
2018-02-14T06:14:17.970Z,87.04
2018-02-14T06:15:17.953Z,86.10
2018-02-14T06:16:17.937Z,83.54
2018-02-14T06:17:17.916Z,84.49
2018-02-14T06:18:17.892Z,84.77
2018-02-14T06:19:17.864Z,86.29
2018-02-14T06:20:17.843Z,87.13
2018-02-14T06:21:17.825Z,86.94
2018-02-14T06:22:17.802Z,84.86
2018-02-14T06:23:17.784Z,84.01
2018-02-14T06:24:17.773Z,85.81
2018-02-14T06:25:17.739Z,86.19
2018-02-14T06:26:17.720Z,83.92
2018-02-14T06:27:17.699Z,84.58
2018-02-14T06:28:17.677Z,85.34
2018-02-14T06:29:17.661Z,87.04
2018-02-14T06:30:17.640Z,86.99
2018-02-14T06:31:17.613Z,88.03
2018-02-14T06:32:17.592Z,88.41
2018-02-14T06:33:17.576Z,85.00
2018-02-14T06:34:17.552Z,83.30
2018-02-14T06:35:17.535Z,81.41
2018-02-14T06:36:17.513Z,84.72
2018-02-14T06:37:17.495Z,84.16
2018-02-14T06:38:17.467Z,86.42
2018-02-14T06:39:17.447Z,83.49
2018-02-14T06:40:17.430Z,84.53
2018-02-14T06:41:17.445Z,87.08
2018-02-14T06:42:17.385Z,85.19
2018-02-14T06:43:17.364Z,83.78
2018-02-14T06:44:17.350Z,82.12
2018-02-14T06:45:17.325Z,81.84
2018-02-14T06:46:17.306Z,82.03
2018-02-14T06:47:17.281Z,82.88
2018-02-14T06:48:17.267Z,83.83
2018-02-14T06:49:17.239Z,85.15
2018-02-14T06:50:17.223Z,86.47
2018-02-14T06:51:17.201Z,84.49
2018-02-14T06:52:17.175Z,84.20
2018-02-14T06:53:17.163Z,84.86
2018-02-14T06:54:17.136Z,87.23
2018-02-14T06:55:17.121Z,84.96
2018-02-14T06:56:17.096Z,83.45
2018-02-14T06:57:17.077Z,84.49
2018-02-14T06:58:17.055Z,83.73
2018-02-14T06:59:17.031Z,84.49
2018-02-14T07:00:17.009Z,85.15
2018-02-14T07:01:16.990Z,86.85
2018-02-14T07:02:16.976Z,86.94
2018-02-14T07:03:16.948Z,89.22
2018-02-14T07:04:16.924Z,87.42
2018-02-14T07:05:16.904Z,85.66
2018-02-14T07:06:16.885Z,87.18
2018-02-14T07:07:16.873Z,87.55
2018-02-14T07:08:16.850Z,86.23
2018-02-14T07:09:16.830Z,86.23
2018-02-14T07:10:16.803Z,84.81
2018-02-14T07:11:16.780Z,85.38
2018-02-14T07:12:16.768Z,84.72
2018-02-14T07:13:16.739Z,83.59
2018-02-14T07:14:16.718Z,84.34
2018-02-14T07:15:16.702Z,84.16
2018-02-14T07:16:16.680Z,85.19
2018-02-14T07:17:16.656Z,84.63
2018-02-14T07:18:16.642Z,82.26
2018-02-14T07:19:16.620Z,84.44
2018-02-14T07:20:16.593Z,83.87
2018-02-14T07:21:16.580Z,83.59
2018-02-14T07:22:16.558Z,85.47
2018-02-14T07:23:16.534Z,83.30
2018-02-14T07:24:16.521Z,84.81
2018-02-14T07:25:16.496Z,82.45
2018-02-14T07:26:16.471Z,80.27
2018-02-14T07:27:16.456Z,83.40
2018-02-14T07:28:16.429Z,82.17
2018-02-14T07:29:16.412Z,84.06
2018-02-14T07:30:16.395Z,85.00
2018-02-14T07:31:16.374Z,81.98
2018-02-14T07:32:16.353Z,82.17
2018-02-14T07:33:16.332Z,83.78
2018-02-14T07:34:16.307Z,86.52
2018-02-14T07:35:16.292Z,84.53
2018-02-14T07:36:16.266Z,85.47
2018-02-14T07:37:16.245Z,83.49
2018-02-14T07:38:16.229Z,81.51
2018-02-14T07:39:16.206Z,81.41
2018-02-14T07:40:16.184Z,79.71
2018-02-14T07:41:16.165Z,83.68
2018-02-14T07:42:16.144Z,81.79
2018-02-14T07:43:16.123Z,82.92
2018-02-14T07:44:16.098Z,86.23
2018-02-14T07:45:16.077Z,84.06
2018-02-14T07:46:16.059Z,86.14
2018-02-14T07:47:16.049Z,85.00
2018-02-14T07:48:16.019Z,83.68
2018-02-14T07:49:16.006Z,86.04
2018-02-14T07:50:15.980Z,83.87
2018-02-14T07:51:15.959Z,81.60
2018-02-14T07:52:15.946Z,80.75
2018-02-14T07:53:15.922Z,81.51
2018-02-14T07:54:15.897Z,83.02
2018-02-14T07:55:15.881Z,83.87
2018-02-14T07:56:15.853Z,84.16
2018-02-14T07:57:15.835Z,82.45
2018-02-14T07:58:15.813Z,82.45
2018-02-14T07:59:15.795Z,82.54
2018-02-14T08:00:15.773Z,81.60
2018-02-14T08:01:15.762Z,86.23
2018-02-14T08:02:15.732Z,85.28
2018-02-14T08:03:15.713Z,84.25
2018-02-14T08:04:15.697Z,84.86
2018-02-14T08:05:15.677Z,84.01
2018-02-14T08:06:15.651Z,82.78
2018-02-14T08:07:15.637Z,82.59
2018-02-14T08:08:15.611Z,80.79
2018-02-14T08:09:15.632Z,81.64
2018-02-14T08:10:15.569Z,83.34
2018-02-14T08:11:15.552Z,81.64
2018-02-14T08:12:15.529Z,82.59
2018-02-14T08:13:15.510Z,83.53
2018-02-14T08:14:15.493Z,82.12
2018-02-14T08:15:15.469Z,81.64
2018-02-14T08:16:15.450Z,80.32
2018-02-14T08:17:15.432Z,79.18
2018-02-14T08:18:15.415Z,80.79
2018-02-14T08:19:15.393Z,81.83
2018-02-14T08:20:15.377Z,78.14
2018-02-14T08:21:15.349Z,78.33
2018-02-14T08:22:15.332Z,80.60
2018-02-14T08:23:15.316Z,82.59
2018-02-14T08:24:15.295Z,77.48
2018-02-14T08:25:15.273Z,77.67
2018-02-14T08:26:15.249Z,78.23
2018-02-14T08:27:15.229Z,80.41
2018-02-14T08:28:15.214Z,79.37
2018-02-14T08:29:15.188Z,80.51
2018-02-14T08:30:15.177Z,79.18
2018-02-14T08:31:15.147Z,79.75
2018-02-14T08:32:15.126Z,80.41
2018-02-14T08:33:15.109Z,79.94
2018-02-14T08:34:15.090Z,80.13
2018-02-14T08:35:15.069Z,82.87
2018-02-14T08:36:15.047Z,79.56
2018-02-14T08:37:15.033Z,82.40
2018-02-14T08:38:15.007Z,80.98
2018-02-14T08:39:14.989Z,78.33
2018-02-14T08:40:14.974Z,80.69
2018-02-14T08:41:14.949Z,79.37
2018-02-14T08:42:14.928Z,77.10
2018-02-14T08:43:14.909Z,78.52
2018-02-14T08:44:14.888Z,77.95
2018-02-14T08:45:14.871Z,77.76
2018-02-14T08:46:14.849Z,80.32
2018-02-14T08:47:14.831Z,77.86
2018-02-14T08:48:14.814Z,78.05
2018-02-14T08:49:14.796Z,79.22
2018-02-14T08:50:14.771Z,79.13
2018-02-14T08:51:14.754Z,79.60
2018-02-14T08:52:14.731Z,77.70
2018-02-14T08:53:14.713Z,77.42
2018-02-14T08:54:14.693Z,75.81
2018-02-14T08:55:14.678Z,74.11
2018-02-14T08:56:14.650Z,72.97
2018-02-14T08:57:14.632Z,73.83
2018-02-14T08:58:14.620Z,76.19
2018-02-14T08:59:14.600Z,80.93
2018-02-14T09:00:14.584Z,79.03
2018-02-14T09:01:14.557Z,75.81
2018-02-14T09:02:14.538Z,77.14
2018-02-14T09:03:14.515Z,77.89
2018-02-14T09:04:14.496Z,78.56
2018-02-14T09:05:14.476Z,78.37
2018-02-14T09:06:14.457Z,77.23
2018-02-14T09:07:14.441Z,78.56
2018-02-14T09:08:14.418Z,75.62
2018-02-14T09:09:14.405Z,74.77
2018-02-14T09:10:14.383Z,75.62
2018-02-14T09:11:14.366Z,75.91
2018-02-14T09:12:14.344Z,72.78
2018-02-14T09:13:14.334Z,75.15
2018-02-14T09:14:14.335Z,72.97
2018-02-14T09:15:14.290Z,71.84
2018-02-14T09:16:14.279Z,73.64
2018-02-14T09:17:14.260Z,77.23
2018-02-14T09:18:14.228Z,73.64
2018-02-14T09:19:14.209Z,71.65
2018-02-14T09:20:14.189Z,73.54
2018-02-14T09:21:14.172Z,76.48
2018-02-14T09:22:14.153Z,73.54
2018-02-14T09:23:14.131Z,74.02
2018-02-14T09:24:14.112Z,80.36
2018-02-14T09:25:14.094Z,81.77
2018-02-14T09:26:14.074Z,75.05
2018-02-14T09:27:14.056Z,71.84
2018-02-14T09:28:14.039Z,71.84
2018-02-14T09:29:14.019Z,76.19
2018-02-14T09:30:14.006Z,79.32
2018-02-14T09:31:13.981Z,80.45
2018-02-14T09:32:13.966Z,75.24
2018-02-14T09:33:13.944Z,74.96
2018-02-14T09:34:13.925Z,75.24
2018-02-14T09:35:13.906Z,76.48
2018-02-14T09:36:13.886Z,78.85
2018-02-14T09:37:13.878Z,75.09
2018-02-14T09:38:13.852Z,72.82
2018-02-14T09:39:13.833Z,75.19
2018-02-14T09:40:13.816Z,71.88
2018-02-14T09:41:13.802Z,73.30
2018-02-14T09:42:13.784Z,76.70
2018-02-14T09:43:13.760Z,71.59
2018-02-14T09:44:13.742Z,72.92
2018-02-14T09:45:13.730Z,72.73
2018-02-14T09:46:13.706Z,71.59
2018-02-14T09:47:13.696Z,71.50
2018-02-14T09:48:13.667Z,75.09
2018-02-14T09:49:13.649Z,74.90
2018-02-14T09:50:13.633Z,73.96
2018-02-14T09:51:13.615Z,71.12
2018-02-14T09:52:13.604Z,71.88
2018-02-14T09:53:13.575Z,75.66
2018-02-14T09:54:13.556Z,71.50
2018-02-14T09:55:13.540Z,71.78
2018-02-14T09:56:13.520Z,72.92
2018-02-14T09:57:13.508Z,72.82
2018-02-14T09:58:13.491Z,71.59
2018-02-14T09:59:13.471Z,73.11
2018-02-14T10:00:13.492Z,70.17
2018-02-14T10:01:13.433Z,70.55
2018-02-14T10:02:13.419Z,70.55
2018-02-14T10:03:13.397Z,69.60
2018-02-14T10:04:13.376Z,68.65
2018-02-14T10:05:13.359Z,67.71
2018-02-14T10:06:13.343Z,70.55
2018-02-14T10:07:13.325Z,71.78
2018-02-14T10:08:13.310Z,70.64
2018-02-14T10:09:13.285Z,69.51
2018-02-14T10:10:13.274Z,69.03
2018-02-14T10:11:13.266Z,69.60
2018-02-14T10:12:13.230Z,67.71
2018-02-14T10:13:13.213Z,69.03
2018-02-14T10:14:13.207Z,69.89
2018-02-14T10:15:13.180Z,68.27
2018-02-14T10:16:13.167Z,68.65
2018-02-14T10:17:13.141Z,68.08
2018-02-14T10:18:13.124Z,69.38
2018-02-14T10:19:13.108Z,69.66
2018-02-14T10:20:13.086Z,68.15
2018-02-14T10:21:13.068Z,69.09
2018-02-14T10:22:13.052Z,70.79
2018-02-14T10:23:13.060Z,71.52
2018-02-14T10:24:13.017Z,73.73
2018-02-14T10:25:13.001Z,71.74
2018-02-14T10:26:12.977Z,72.97
2018-02-14T10:27:12.964Z,77.51
2018-02-14T10:28:12.939Z,75.43
2018-02-14T10:29:12.920Z,72.50
2018-02-14T10:30:12.902Z,71.55
2018-02-14T10:31:12.885Z,70.79
2018-02-14T10:32:12.865Z,68.62
2018-02-14T10:33:12.855Z,67.77
2018-02-14T10:34:12.827Z,68.05
2018-02-14T10:35:12.813Z,68.90
2018-02-14T10:36:12.789Z,69.28
2018-02-14T10:37:12.772Z,67.96
2018-02-14T10:38:12.759Z,68.05
2018-02-14T10:39:12.738Z,68.27
2018-02-14T10:40:12.718Z,67.90
2018-02-14T10:41:12.708Z,67.86
2018-02-14T10:42:12.687Z,68.27
2018-02-14T10:43:12.661Z,67.99
2018-02-14T10:44:12.644Z,68.65
2018-02-14T10:45:12.633Z,69.03
2018-02-14T10:46:12.614Z,67.90
2018-02-14T10:47:12.590Z,68.27
2018-02-14T10:48:12.571Z,69.79
2018-02-14T10:49:12.561Z,70.83
2018-02-14T10:50:12.535Z,68.37
2018-02-14T10:51:12.517Z,69.51
2018-02-14T10:52:12.497Z,69.22
2018-02-14T10:53:12.481Z,68.65
2018-02-14T10:54:12.463Z,69.03
2018-02-14T10:55:12.450Z,70.83
2018-02-14T10:56:12.435Z,69.70
2018-02-14T10:57:12.414Z,68.18
2018-02-14T10:58:12.391Z,69.41
2018-02-14T10:59:12.382Z,69.79
2018-02-14T11:00:12.360Z,68.08
2018-02-14T11:01:12.374Z,67.99
2018-02-14T11:02:12.319Z,69.03
2018-02-14T11:03:12.303Z,67.71
2018-02-14T11:04:12.282Z,67.90
2018-02-14T11:05:12.263Z,69.98
2018-02-14T11:06:12.248Z,68.84
2018-02-14T11:07:12.231Z,67.80
2018-02-14T11:08:12.210Z,71.40
2018-02-14T11:09:12.194Z,71.69
2018-02-14T11:10:12.181Z,69.22
2018-02-14T11:11:12.157Z,73.43
2018-02-14T11:12:12.143Z,72.29
2018-02-14T11:13:12.122Z,71.44
2018-02-14T11:14:12.104Z,69.54
2018-02-14T11:15:12.087Z,69.07
2018-02-14T11:16:12.067Z,65.28
2018-02-14T11:17:12.056Z,64.81
2018-02-14T11:18:12.033Z,63.85
2018-02-14T11:19:12.023Z,63.76
2018-02-14T11:20:11.997Z,63.67
2018-02-14T11:21:11.980Z,64.90
2018-02-14T11:22:11.961Z,65.19
2018-02-14T11:23:11.945Z,67.08
2018-02-14T11:24:11.927Z,65.94
2018-02-14T11:25:11.912Z,66.80
2018-02-14T11:26:11.893Z,68.98
2018-02-14T11:27:11.878Z,68.31
2018-02-14T11:28:11.859Z,67.74
2018-02-14T11:29:11.840Z,66.03
2018-02-14T11:30:11.823Z,64.23
2018-02-14T11:31:11.815Z,64.42
2018-02-14T11:32:11.789Z,64.81
2018-02-14T11:33:11.770Z,64.71
2018-02-14T11:34:11.754Z,66.32
2018-02-14T11:35:11.736Z,66.89
2018-02-14T11:36:11.723Z,65.75
2018-02-14T11:37:11.700Z,65.75
2018-02-14T11:38:11.683Z,65.75
2018-02-14T11:39:11.667Z,65.37
2018-02-14T11:40:11.650Z,65.66
2018-02-14T11:41:11.635Z,65.47
2018-02-14T11:42:11.617Z,65.09
2018-02-14T11:43:11.596Z,65.19
2018-02-14T11:44:11.582Z,68.12
2018-02-14T11:45:11.564Z,69.73
2018-02-14T11:46:11.545Z,69.64
2018-02-14T11:47:11.536Z,69.54
2018-02-14T11:48:11.512Z,66.89
2018-02-14T11:49:11.494Z,64.04
2018-02-14T11:50:11.477Z,63.57
2018-02-14T11:51:11.458Z,63.57
2018-02-14T11:52:11.447Z,64.14
2018-02-14T11:53:11.428Z,68.31
2018-02-14T11:54:11.415Z,71.81
2018-02-14T11:55:11.394Z,70.62
2018-02-14T11:56:11.378Z,69.77
2018-02-14T11:57:11.357Z,67.40
2018-02-14T11:58:11.345Z,71.38
2018-02-14T11:59:11.329Z,69.10
2018-02-14T12:00:11.304Z,64.55
2018-02-14T12:01:11.292Z,63.79
2018-02-14T12:02:11.272Z,63.89
2018-02-14T12:03:11.255Z,65.41
2018-02-14T12:04:11.238Z,64.36
2018-02-14T12:05:11.223Z,66.74
2018-02-14T12:06:11.209Z,63.79
2018-02-14T12:07:11.193Z,64.46
2018-02-14T12:08:11.173Z,65.59
2018-02-14T12:09:11.154Z,67.02
2018-02-14T12:10:11.141Z,64.27
2018-02-14T12:11:11.121Z,67.11
2018-02-14T12:12:11.145Z,64.55
2018-02-14T12:13:11.085Z,63.60
2018-02-14T12:14:11.069Z,63.04
2018-02-14T12:15:11.054Z,62.18
2018-02-14T12:16:11.039Z,62.94
2018-02-14T12:17:11.025Z,62.94
2018-02-14T12:18:11.006Z,63.04
2018-02-14T12:19:10.988Z,63.32
2018-02-14T12:20:10.970Z,63.67
2018-02-14T12:21:10.958Z,63.76
2018-02-14T12:22:10.936Z,63.85
2018-02-14T12:23:10.918Z,67.36
2018-02-14T12:24:10.901Z,67.83
2018-02-14T12:25:10.891Z,69.67
2018-02-14T12:26:10.869Z,70.62
2018-02-14T12:27:10.851Z,70.34
2018-02-14T12:28:10.841Z,65.31
2018-02-14T12:29:10.825Z,65.78
2018-02-14T12:30:10.802Z,66.54
2018-02-14T12:31:10.786Z,65.97
2018-02-14T12:32:10.769Z,65.12
2018-02-14T12:33:10.757Z,64.36
2018-02-14T12:34:10.737Z,63.42
2018-02-14T12:35:10.724Z,63.60
2018-02-14T12:36:10.737Z,63.60
2018-02-14T12:37:10.694Z,63.60
2018-02-14T12:38:10.669Z,64.17
2018-02-14T12:39:10.653Z,64.84
2018-02-14T12:40:10.637Z,63.51
2018-02-14T12:41:10.621Z,65.03
2018-02-14T12:42:10.605Z,68.06
2018-02-14T12:43:10.587Z,69.67
2018-02-14T12:44:10.575Z,71.09
2018-02-14T12:45:10.556Z,67.68
2018-02-14T12:46:10.538Z,64.46
2018-02-14T12:47:10.523Z,63.70
2018-02-14T12:48:10.506Z,63.89
2018-02-14T12:49:10.489Z,63.89
2018-02-14T12:50:10.475Z,63.70
2018-02-14T12:51:10.457Z,64.74
2018-02-14T12:52:10.445Z,64.55